sensor_id;sensor_type;location;lat;lon;timestamp;P1;durP1;ratioP1;P2;durP2;ratioP2
19830;SDS011;10076;52.008;4.708;2023-07-24T00:00:00;3.63;;;2.00;;
19830;SDS011;10076;52.008;4.708;2023-07-24T00:02:26;3.35;;;1.88;;
19830;SDS011;10076;52.008;4.708;2023-07-24T00:04:51;3.20;;;1.75;;
19830;SDS011;10076;52.008;4.708;2023-07-24T00:07:16;4.22;;;1.83;;
19830;SDS011;10076;52.008;4.708;2023-07-24T00:09:42;2.42;;;1.90;;
19830;SDS011;10076;52.008;4.708;2023-07-24T00:12:07;3.53;;;2.03;;
19830;SDS011;10076;52.008;4.708;2023-07-24T00:14:33;5.63;;;2.42;;
19830;SDS011;10076;52.008;4.708;2023-07-24T00:16:58;4.30;;;2.03;;
19830;SDS011;10076;52.008;4.708;2023-07-24T00:19:23;3.65;;;2.08;;
19830;SDS011;10076;52.008;4.708;2023-07-24T00:21:49;3.63;;;1.83;;
19830;SDS011;10076;52.008;4.708;2023-07-24T00:24:14;2.75;;;1.70;;
19830;SDS011;10076;52.008;4.708;2023-07-24T00:26:39;2.95;;;2.20;;
19830;SDS011;10076;52.008;4.708;2023-07-24T00:29:05;5.07;;;2.30;;
19830;SDS011;10076;52.008;4.708;2023-07-24T00:31:30;3.05;;;1.90;;
19830;SDS011;10076;52.008;4.708;2023-07-24T00:33:55;3.88;;;2.30;;
19830;SDS011;10076;52.008;4.708;2023-07-24T00:36:21;3.63;;;2.10;;
19830;SDS011;10076;52.008;4.708;2023-07-24T00:38:46;3.42;;;2.08;;
19830;SDS011;10076;52.008;4.708;2023-07-24T00:41:11;3.92;;;2.20;;
19830;SDS011;10076;52.008;4.708;2023-07-24T00:43:37;4.45;;;2.05;;
19830;SDS011;10076;52.008;4.708;2023-07-24T00:46:02;3.92;;;2.13;;
19830;SDS011;10076;52.008;4.708;2023-07-24T00:48:28;3.20;;;1.80;;
19830;SDS011;10076;52.008;4.708;2023-07-24T00:50:53;5.43;;;2.15;;
19830;SDS011;10076;52.008;4.708;2023-07-24T00:53:19;2.88;;;1.52;;
19830;SDS011;10076;52.008;4.708;2023-07-24T00:55:45;3.08;;;1.77;;
19830;SDS011;10076;52.008;4.708;2023-07-24T00:58:11;3.97;;;1.90;;
19830;SDS011;10076;52.008;4.708;2023-07-24T01:00:39;3.70;;;1.88;;
19830;SDS011;10076;52.008;4.708;2023-07-24T01:03:05;3.65;;;1.40;;
19830;SDS011;10076;52.008;4.708;2023-07-24T01:05:31;2.92;;;1.73;;
19830;SDS011;10076;52.008;4.708;2023-07-24T01:07:56;3.20;;;1.35;;
19830;SDS011;10076;52.008;4.708;2023-07-24T01:10:22;2.88;;;1.85;;
19830;SDS011;10076;52.008;4.708;2023-07-24T01:15:28;4.75;;;1.90;;
19830;SDS011;10076;52.008;4.708;2023-07-24T01:17:59;3.30;;;1.70;;
19830;SDS011;10076;52.008;4.708;2023-07-24T01:20:28;2.83;;;1.65;;
19830;SDS011;10076;52.008;4.708;2023-07-24T01:26:05;4.82;;;2.30;;
19830;SDS011;10076;52.008;4.708;2023-07-24T01:28:31;5.68;;;2.10;;
19830;SDS011;10076;52.008;4.708;2023-07-24T01:30:57;3.65;;;1.70;;
19830;SDS011;10076;52.008;4.708;2023-07-24T01:33:22;4.18;;;1.92;;
19830;SDS011;10076;52.008;4.708;2023-07-24T01:35:50;4.40;;;2.00;;
19830;SDS011;10076;52.008;4.708;2023-07-24T01:38:21;3.75;;;1.58;;
19830;SDS011;10076;52.008;4.708;2023-07-24T01:40:47;5.10;;;1.83;;
19830;SDS011;10076;52.008;4.708;2023-07-24T01:43:13;5.80;;;2.10;;
19830;SDS011;10076;52.008;4.708;2023-07-24T01:45:39;4.70;;;1.70;;
19830;SDS011;10076;52.008;4.708;2023-07-24T01:48:04;3.17;;;1.73;;
19830;SDS011;10076;52.008;4.708;2023-07-24T01:50:30;3.00;;;1.70;;
19830;SDS011;10076;52.008;4.708;2023-07-24T01:52:56;3.42;;;1.83;;
19830;SDS011;10076;52.008;4.708;2023-07-24T01:55:21;2.80;;;1.58;;
19830;SDS011;10076;52.008;4.708;2023-07-24T01:57:47;3.30;;;1.75;;
19830;SDS011;10076;52.008;4.708;2023-07-24T02:00:12;3.95;;;1.85;;
19830;SDS011;10076;52.008;4.708;2023-07-24T02:02:38;3.05;;;1.88;;
19830;SDS011;10076;52.008;4.708;2023-07-24T02:05:03;4.28;;;2.03;;
19830;SDS011;10076;52.008;4.708;2023-07-24T02:07:29;6.43;;;2.30;;
19830;SDS011;10076;52.008;4.708;2023-07-24T02:09:54;4.38;;;2.15;;
19830;SDS011;10076;52.008;4.708;2023-07-24T02:12:20;5.80;;;1.98;;
19830;SDS011;10076;52.008;4.708;2023-07-24T02:14:45;4.22;;;2.13;;
19830;SDS011;10076;52.008;4.708;2023-07-24T02:17:14;4.85;;;1.98;;
19830;SDS011;10076;52.008;4.708;2023-07-24T02:19:40;6.70;;;2.33;;
19830;SDS011;10076;52.008;4.708;2023-07-24T02:22:05;4.28;;;2.30;;
19830;SDS011;10076;52.008;4.708;2023-07-24T02:24:31;3.90;;;2.00;;
19830;SDS011;10076;52.008;4.708;2023-07-24T02:26:56;2.42;;;1.63;;
19830;SDS011;10076;52.008;4.708;2023-07-24T02:29:21;3.88;;;2.13;;
19830;SDS011;10076;52.008;4.708;2023-07-24T02:31:47;3.70;;;1.95;;
19830;SDS011;10076;52.008;4.708;2023-07-24T02:34:13;3.97;;;1.98;;
19830;SDS011;10076;52.008;4.708;2023-07-24T02:36:38;4.53;;;2.80;;
19830;SDS011;10076;52.008;4.708;2023-07-24T02:39:06;3.95;;;2.30;;
19830;SDS011;10076;52.008;4.708;2023-07-24T02:41:31;4.40;;;2.25;;
19830;SDS011;10076;52.008;4.708;2023-07-24T02:43:57;6.45;;;2.92;;
19830;SDS011;10076;52.008;4.708;2023-07-24T02:46:22;4.82;;;2.30;;
19830;SDS011;10076;52.008;4.708;2023-07-24T02:48:49;3.90;;;2.33;;
19830;SDS011;10076;52.008;4.708;2023-07-24T02:51:15;4.20;;;2.17;;
19830;SDS011;10076;52.008;4.708;2023-07-24T02:53:40;6.03;;;2.78;;
19830;SDS011;10076;52.008;4.708;2023-07-24T02:56:05;6.53;;;2.88;;
19830;SDS011;10076;52.008;4.708;2023-07-24T02:58:31;5.05;;;2.97;;
19830;SDS011;10076;52.008;4.708;2023-07-24T03:01:05;7.03;;;2.72;;
19830;SDS011;10076;52.008;4.708;2023-07-24T03:03:34;8.30;;;2.90;;
19830;SDS011;10076;52.008;4.708;2023-07-24T03:06:00;5.90;;;2.75;;
19830;SDS011;10076;52.008;4.708;2023-07-24T03:08:25;6.07;;;2.45;;
19830;SDS011;10076;52.008;4.708;2023-07-24T03:10:51;4.43;;;2.40;;
19830;SDS011;10076;52.008;4.708;2023-07-24T03:13:16;7.35;;;3.13;;
19830;SDS011;10076;52.008;4.708;2023-07-24T03:15:42;5.18;;;2.72;;
19830;SDS011;10076;52.008;4.708;2023-07-24T03:18:07;7.93;;;3.55;;
19830;SDS011;10076;52.008;4.708;2023-07-24T03:20:32;6.40;;;3.00;;
19830;SDS011;10076;52.008;4.708;2023-07-24T03:22:57;5.18;;;2.95;;
19830;SDS011;10076;52.008;4.708;2023-07-24T03:25:23;7.45;;;3.08;;
19830;SDS011;10076;52.008;4.708;2023-07-24T03:27:48;4.93;;;2.72;;
19830;SDS011;10076;52.008;4.708;2023-07-24T03:30:13;6.32;;;2.50;;
19830;SDS011;10076;52.008;4.708;2023-07-24T03:32:39;6.15;;;3.58;;
19830;SDS011;10076;52.008;4.708;2023-07-24T03:35:05;5.68;;;3.08;;
19830;SDS011;10076;52.008;4.708;2023-07-24T03:37:33;5.68;;;2.63;;
19830;SDS011;10076;52.008;4.708;2023-07-24T03:40:00;4.40;;;2.05;;
19830;SDS011;10076;52.008;4.708;2023-07-24T03:44:51;4.88;;;2.63;;
19830;SDS011;10076;52.008;4.708;2023-07-24T03:47:17;4.72;;;2.50;;
19830;SDS011;10076;52.008;4.708;2023-07-24T03:49:42;5.15;;;2.60;;
19830;SDS011;10076;52.008;4.708;2023-07-24T03:52:08;6.40;;;3.05;;
19830;SDS011;10076;52.008;4.708;2023-07-24T03:54:33;5.40;;;2.50;;
19830;SDS011;10076;52.008;4.708;2023-07-24T03:56:58;6.47;;;2.38;;
19830;SDS011;10076;52.008;4.708;2023-07-24T03:59:24;4.55;;;2.33;;
19830;SDS011;10076;52.008;4.708;2023-07-24T04:01:49;7.90;;;2.80;;
19830;SDS011;10076;52.008;4.708;2023-07-24T04:04:14;5.28;;;2.70;;
19830;SDS011;10076;52.008;4.708;2023-07-24T04:06:40;7.38;;;3.05;;
19830;SDS011;10076;52.008;4.708;2023-07-24T04:09:05;5.65;;;3.00;;
19830;SDS011;10076;52.008;4.708;2023-07-24T04:11:30;5.90;;;2.67;;
19830;SDS011;10076;52.008;4.708;2023-07-24T04:13:56;6.90;;;3.00;;
19830;SDS011;10076;52.008;4.708;2023-07-24T04:16:21;5.93;;;2.90;;
19830;SDS011;10076;52.008;4.708;2023-07-24T04:18:46;7.03;;;3.25;;
19830;SDS011;10076;52.008;4.708;2023-07-24T04:21:11;6.50;;;2.92;;
19830;SDS011;10076;52.008;4.708;2023-07-24T04:23:37;6.10;;;2.70;;
19830;SDS011;10076;52.008;4.708;2023-07-24T04:26:02;7.70;;;3.00;;
19830;SDS011;10076;52.008;4.708;2023-07-24T04:28:27;5.63;;;2.90;;
19830;SDS011;10076;52.008;4.708;2023-07-24T04:30:53;6.07;;;2.80;;
19830;SDS011;10076;52.008;4.708;2023-07-24T04:33:18;8.30;;;3.50;;
19830;SDS011;10076;52.008;4.708;2023-07-24T04:35:47;5.68;;;3.17;;
19830;SDS011;10076;52.008;4.708;2023-07-24T04:38:12;7.80;;;2.72;;
19830;SDS011;10076;52.008;4.708;2023-07-24T04:40:38;4.95;;;2.83;;
19830;SDS011;10076;52.008;4.708;2023-07-24T04:43:03;10.75;;;2.90;;
19830;SDS011;10076;52.008;4.708;2023-07-24T04:45:29;7.53;;;2.75;;
19830;SDS011;10076;52.008;4.708;2023-07-24T04:47:54;7.20;;;2.92;;
19830;SDS011;10076;52.008;4.708;2023-07-24T04:50:19;7.22;;;2.53;;
19830;SDS011;10076;52.008;4.708;2023-07-24T04:52:44;5.90;;;2.13;;
19830;SDS011;10076;52.008;4.708;2023-07-24T04:55:10;3.50;;;2.05;;
19830;SDS011;10076;52.008;4.708;2023-07-24T04:57:35;4.45;;;2.22;;
19830;SDS011;10076;52.008;4.708;2023-07-24T05:00:00;4.70;;;2.17;;
19830;SDS011;10076;52.008;4.708;2023-07-24T05:02:26;4.43;;;2.30;;
19830;SDS011;10076;52.008;4.708;2023-07-24T05:04:51;4.85;;;2.20;;
19830;SDS011;10076;52.008;4.708;2023-07-24T05:07:16;3.05;;;2.00;;
19830;SDS011;10076;52.008;4.708;2023-07-24T05:09:42;4.38;;;2.17;;
19830;SDS011;10076;52.008;4.708;2023-07-24T05:12:07;4.60;;;2.05;;
19830;SDS011;10076;52.008;4.708;2023-07-24T05:14:32;3.95;;;1.73;;
19830;SDS011;10076;52.008;4.708;2023-07-24T05:16:58;7.88;;;2.38;;
19830;SDS011;10076;52.008;4.708;2023-07-24T05:19:23;6.75;;;1.83;;
19830;SDS011;10076;52.008;4.708;2023-07-24T05:21:48;7.07;;;2.28;;
19830;SDS011;10076;52.008;4.708;2023-07-24T05:24:14;4.85;;;2.20;;
19830;SDS011;10076;52.008;4.708;2023-07-24T05:26:39;4.60;;;2.25;;
19830;SDS011;10076;52.008;4.708;2023-07-24T05:29:04;5.55;;;1.70;;
19830;SDS011;10076;52.008;4.708;2023-07-24T05:31:29;4.55;;;2.25;;
19830;SDS011;10076;52.008;4.708;2023-07-24T05:33:55;6.15;;;1.73;;
19830;SDS011;10076;52.008;4.708;2023-07-24T05:36:20;5.20;;;2.13;;
19830;SDS011;10076;52.008;4.708;2023-07-24T05:38:45;5.03;;;2.40;;
19830;SDS011;10076;52.008;4.708;2023-07-24T05:41:11;3.85;;;2.00;;
19830;SDS011;10076;52.008;4.708;2023-07-24T05:43:36;5.95;;;2.47;;
19830;SDS011;10076;52.008;4.708;2023-07-24T05:46:01;2.95;;;1.83;;
19830;SDS011;10076;52.008;4.708;2023-07-24T05:48:27;3.70;;;1.95;;
19830;SDS011;10076;52.008;4.708;2023-07-24T05:50:52;6.32;;;1.77;;
19830;SDS011;10076;52.008;4.708;2023-07-24T05:53:18;6.10;;;2.00;;
19830;SDS011;10076;52.008;4.708;2023-07-24T05:55:43;8.98;;;2.30;;
19830;SDS011;10076;52.008;4.708;2023-07-24T05:58:08;12.30;;;4.38;;
19830;SDS011;10076;52.008;4.708;2023-07-24T06:00:34;7.68;;;2.17;;
19830;SDS011;10076;52.008;4.708;2023-07-24T06:03:01;7.13;;;2.83;;
19830;SDS011;10076;52.008;4.708;2023-07-24T06:05:27;3.15;;;2.00;;
19830;SDS011;10076;52.008;4.708;2023-07-24T06:07:52;5.22;;;2.17;;
19830;SDS011;10076;52.008;4.708;2023-07-24T06:10:17;4.20;;;1.85;;
19830;SDS011;10076;52.008;4.708;2023-07-24T06:12:42;6.82;;;1.88;;
19830;SDS011;10076;52.008;4.708;2023-07-24T06:15:08;5.47;;;2.33;;
19830;SDS011;10076;52.008;4.708;2023-07-24T06:17:33;4.82;;;2.50;;
19830;SDS011;10076;52.008;4.708;2023-07-24T06:19:59;4.72;;;1.65;;
19830;SDS011;10076;52.008;4.708;2023-07-24T06:22:24;3.60;;;1.85;;
19830;SDS011;10076;52.008;4.708;2023-07-24T06:24:50;8.75;;;2.42;;
19830;SDS011;10076;52.008;4.708;2023-07-24T06:27:15;6.82;;;1.90;;
19830;SDS011;10076;52.008;4.708;2023-07-24T06:29:41;4.47;;;1.98;;
19830;SDS011;10076;52.008;4.708;2023-07-24T06:32:07;4.50;;;2.20;;
19830;SDS011;10076;52.008;4.708;2023-07-24T06:34:33;2.13;;;1.60;;
19830;SDS011;10076;52.008;4.708;2023-07-24T06:36:59;6.50;;;2.63;;
19830;SDS011;10076;52.008;4.708;2023-07-24T06:39:24;3.05;;;1.90;;
19830;SDS011;10076;52.008;4.708;2023-07-24T06:41:51;4.25;;;1.75;;
19830;SDS011;10076;52.008;4.708;2023-07-24T06:44:17;4.68;;;2.00;;
19830;SDS011;10076;52.008;4.708;2023-07-24T06:46:42;6.03;;;2.05;;
19830;SDS011;10076;52.008;4.708;2023-07-24T06:49:08;5.57;;;2.50;;
19830;SDS011;10076;52.008;4.708;2023-07-24T06:51:33;5.18;;;2.42;;
19830;SDS011;10076;52.008;4.708;2023-07-24T06:53:59;3.70;;;1.85;;
19830;SDS011;10076;52.008;4.708;2023-07-24T06:56:24;4.90;;;2.17;;
19830;SDS011;10076;52.008;4.708;2023-07-24T06:58:49;3.03;;;1.85;;
19830;SDS011;10076;52.008;4.708;2023-07-24T07:01:14;3.08;;;2.03;;
19830;SDS011;10076;52.008;4.708;2023-07-24T07:03:40;4.10;;;2.33;;
19830;SDS011;10076;52.008;4.708;2023-07-24T07:06:05;7.57;;;2.05;;
19830;SDS011;10076;52.008;4.708;2023-07-24T07:08:31;3.47;;;1.77;;
19830;SDS011;10076;52.008;4.708;2023-07-24T07:11:00;2.88;;;1.98;;
19830;SDS011;10076;52.008;4.708;2023-07-24T07:13:26;4.03;;;2.28;;
19830;SDS011;10076;52.008;4.708;2023-07-24T07:15:52;3.92;;;1.95;;
19830;SDS011;10076;52.008;4.708;2023-07-24T07:18:17;5.10;;;2.10;;
19830;SDS011;10076;52.008;4.708;2023-07-24T07:20:46;5.22;;;2.22;;
19830;SDS011;10076;52.008;4.708;2023-07-24T07:23:12;3.42;;;2.05;;
19830;SDS011;10076;52.008;4.708;2023-07-24T07:25:37;4.43;;;2.38;;
19830;SDS011;10076;52.008;4.708;2023-07-24T07:28:03;4.93;;;2.60;;
19830;SDS011;10076;52.008;4.708;2023-07-24T07:30:28;3.38;;;2.20;;
19830;SDS011;10076;52.008;4.708;2023-07-24T07:32:53;4.00;;;1.98;;
19830;SDS011;10076;52.008;4.708;2023-07-24T07:35:19;3.03;;;2.28;;
19830;SDS011;10076;52.008;4.708;2023-07-24T07:37:44;6.30;;;3.22;;
19830;SDS011;10076;52.008;4.708;2023-07-24T07:40:09;3.75;;;2.30;;
19830;SDS011;10076;52.008;4.708;2023-07-24T07:42:35;3.28;;;2.00;;
19830;SDS011;10076;52.008;4.708;2023-07-24T07:45:00;6.25;;;2.50;;
19830;SDS011;10076;52.008;4.708;2023-07-24T07:47:25;4.70;;;2.10;;
19830;SDS011;10076;52.008;4.708;2023-07-24T07:49:51;5.88;;;2.65;;
19830;SDS011;10076;52.008;4.708;2023-07-24T07:52:16;5.07;;;2.40;;
19830;SDS011;10076;52.008;4.708;2023-07-24T07:54:45;5.03;;;2.80;;
19830;SDS011;10076;52.008;4.708;2023-07-24T07:57:11;6.60;;;2.60;;
19830;SDS011;10076;52.008;4.708;2023-07-24T07:59:37;7.50;;;2.80;;
19830;SDS011;10076;52.008;4.708;2023-07-24T08:02:02;5.40;;;2.63;;
19830;SDS011;10076;52.008;4.708;2023-07-24T08:04:28;5.78;;;3.33;;
19830;SDS011;10076;52.008;4.708;2023-07-24T08:06:53;6.93;;;3.50;;
19830;SDS011;10076;52.008;4.708;2023-07-24T08:09:18;7.70;;;3.08;;
19830;SDS011;10076;52.008;4.708;2023-07-24T08:11:44;6.97;;;3.05;;
19830;SDS011;10076;52.008;4.708;2023-07-24T08:14:10;5.65;;;3.05;;
19830;SDS011;10076;52.008;4.708;2023-07-24T08:16:35;3.83;;;2.47;;
19830;SDS011;10076;52.008;4.708;2023-07-24T08:19:00;8.57;;;3.53;;
19830;SDS011;10076;52.008;4.708;2023-07-24T08:21:25;5.22;;;3.03;;
19830;SDS011;10076;52.008;4.708;2023-07-24T08:23:51;7.60;;;3.78;;
19830;SDS011;10076;52.008;4.708;2023-07-24T08:26:16;6.35;;;3.15;;
19830;SDS011;10076;52.008;4.708;2023-07-24T08:28:41;8.60;;;3.88;;
19830;SDS011;10076;52.008;4.708;2023-07-24T08:31:07;5.70;;;3.42;;
19830;SDS011;10076;52.008;4.708;2023-07-24T08:33:33;6.85;;;3.65;;
19830;SDS011;10076;52.008;4.708;2023-07-24T08:36:02;9.95;;;4.28;;
19830;SDS011;10076;52.008;4.708;2023-07-24T08:38:29;9.05;;;4.38;;
19830;SDS011;10076;52.008;4.708;2023-07-24T08:43:26;5.88;;;4.05;;
19830;SDS011;10076;52.008;4.708;2023-07-24T08:45:54;8.73;;;4.15;;
19830;SDS011;10076;52.008;4.708;2023-07-24T08:48:20;7.22;;;3.83;;
19830;SDS011;10076;52.008;4.708;2023-07-24T08:50:47;7.45;;;4.03;;
19830;SDS011;10076;52.008;4.708;2023-07-24T08:53:15;9.68;;;3.92;;
19830;SDS011;10076;52.008;4.708;2023-07-24T08:55:43;10.88;;;3.83;;
19830;SDS011;10076;52.008;4.708;2023-07-24T08:58:11;8.35;;;4.22;;
19830;SDS011;10076;52.008;4.708;2023-07-24T09:00:36;8.48;;;4.45;;
19830;SDS011;10076;52.008;4.708;2023-07-24T09:03:01;5.00;;;3.33;;
19830;SDS011;10076;52.008;4.708;2023-07-24T09:05:27;5.68;;;3.08;;
19830;SDS011;10076;52.008;4.708;2023-07-24T09:07:52;4.63;;;3.38;;
19830;SDS011;10076;52.008;4.708;2023-07-24T09:10:23;6.70;;;3.45;;
19830;SDS011;10076;52.008;4.708;2023-07-24T09:12:50;5.57;;;3.53;;
19830;SDS011;10076;52.008;4.708;2023-07-24T09:15:15;8.50;;;3.17;;
19830;SDS011;10076;52.008;4.708;2023-07-24T09:17:48;5.60;;;3.50;;
19830;SDS011;10076;52.008;4.708;2023-07-24T09:20:17;7.03;;;3.22;;
19830;SDS011;10076;52.008;4.708;2023-07-24T09:22:50;6.00;;;3.25;;
19830;SDS011;10076;52.008;4.708;2023-07-24T09:25:29;5.07;;;3.22;;
19830;SDS011;10076;52.008;4.708;2023-07-24T09:27:56;3.95;;;2.90;;
19830;SDS011;10076;52.008;4.708;2023-07-24T09:30:22;3.60;;;2.92;;
19830;SDS011;10076;52.008;4.708;2023-07-24T09:32:52;7.50;;;3.65;;
19830;SDS011;10076;52.008;4.708;2023-07-24T09:35:18;7.55;;;3.53;;
19830;SDS011;10076;52.008;4.708;2023-07-24T09:37:44;5.00;;;3.30;;
19830;SDS011;10076;52.008;4.708;2023-07-24T09:40:10;5.20;;;3.47;;
19830;SDS011;10076;52.008;4.708;2023-07-24T09:42:37;7.07;;;3.60;;
19830;SDS011;10076;52.008;4.708;2023-07-24T09:45:03;9.90;;;3.50;;
19830;SDS011;10076;52.008;4.708;2023-07-24T09:47:30;6.45;;;2.92;;
19830;SDS011;10076;52.008;4.708;2023-07-24T09:49:56;6.10;;;3.47;;
19830;SDS011;10076;52.008;4.708;2023-07-24T09:52:21;6.07;;;3.50;;
19830;SDS011;10076;52.008;4.708;2023-07-24T09:54:57;4.30;;;3.13;;
19830;SDS011;10076;52.008;4.708;2023-07-24T09:57:36;6.38;;;3.15;;
19830;SDS011;10076;52.008;4.708;2023-07-24T10:00:03;5.57;;;3.72;;
19830;SDS011;10076;52.008;4.708;2023-07-24T10:02:29;6.60;;;3.53;;
19830;SDS011;10076;52.008;4.708;2023-07-24T10:04:55;6.25;;;2.75;;
19830;SDS011;10076;52.008;4.708;2023-07-24T10:07:21;3.70;;;2.63;;
19830;SDS011;10076;52.008;4.708;2023-07-24T10:09:49;4.82;;;2.50;;
19830;SDS011;10076;52.008;4.708;2023-07-24T10:12:16;4.78;;;2.92;;
19830;SDS011;10076;52.008;4.708;2023-07-24T10:14:44;4.63;;;3.25;;
19830;SDS011;10076;52.008;4.708;2023-07-24T10:17:11;5.35;;;2.88;;
19830;SDS011;10076;52.008;4.708;2023-07-24T10:19:38;4.43;;;3.10;;
19830;SDS011;10076;52.008;4.708;2023-07-24T10:22:05;5.00;;;2.88;;
19830;SDS011;10076;52.008;4.708;2023-07-24T10:24:30;3.63;;;2.60;;
19830;SDS011;10076;52.008;4.708;2023-07-24T10:26:56;6.53;;;2.63;;
19830;SDS011;10076;52.008;4.708;2023-07-24T10:29:23;4.20;;;2.80;;
19830;SDS011;10076;52.008;4.708;2023-07-24T10:31:53;2.83;;;2.20;;
19830;SDS011;10076;52.008;4.708;2023-07-24T10:34:19;8.68;;;2.47;;
19830;SDS011;10076;52.008;4.708;2023-07-24T10:36:45;4.82;;;2.80;;
19830;SDS011;10076;52.008;4.708;2023-07-24T10:39:14;7.93;;;2.60;;
19830;SDS011;10076;52.008;4.708;2023-07-24T10:41:41;4.60;;;2.45;;
19830;SDS011;10076;52.008;4.708;2023-07-24T10:44:06;3.90;;;2.28;;
19830;SDS011;10076;52.008;4.708;2023-07-24T10:46:39;3.85;;;2.17;;
19830;SDS011;10076;52.008;4.708;2023-07-24T10:49:05;4.70;;;2.58;;
19830;SDS011;10076;52.008;4.708;2023-07-24T10:51:32;3.00;;;2.13;;
19830;SDS011;10076;52.008;4.708;2023-07-24T10:53:59;2.50;;;2.15;;
19830;SDS011;10076;52.008;4.708;2023-07-24T10:56:24;4.15;;;2.55;;
19830;SDS011;10076;52.008;4.708;2023-07-24T10:58:50;3.72;;;2.10;;
19830;SDS011;10076;52.008;4.708;2023-07-24T11:01:15;3.13;;;2.10;;
19830;SDS011;10076;52.008;4.708;2023-07-24T11:03:42;3.80;;;2.28;;
19830;SDS011;10076;52.008;4.708;2023-07-24T11:06:16;4.15;;;2.28;;
19830;SDS011;10076;52.008;4.708;2023-07-24T11:08:52;4.80;;;2.25;;
19830;SDS011;10076;52.008;4.708;2023-07-24T11:11:21;2.53;;;2.20;;
19830;SDS011;10076;52.008;4.708;2023-07-24T11:13:47;2.95;;;2.30;;
19830;SDS011;10076;52.008;4.708;2023-07-24T11:16:12;5.25;;;2.58;;
19830;SDS011;10076;52.008;4.708;2023-07-24T11:18:48;3.60;;;2.38;;
19830;SDS011;10076;52.008;4.708;2023-07-24T11:21:14;3.30;;;2.45;;
19830;SDS011;10076;52.008;4.708;2023-07-24T11:23:59;5.38;;;2.35;;
19830;SDS011;10076;52.008;4.708;2023-07-24T11:26:25;5.97;;;2.38;;
19830;SDS011;10076;52.008;4.708;2023-07-24T11:28:52;2.80;;;2.10;;
19830;SDS011;10076;52.008;4.708;2023-07-24T11:31:18;4.63;;;2.25;;
19830;SDS011;10076;52.008;4.708;2023-07-24T11:33:49;3.65;;;2.25;;
19830;SDS011;10076;52.008;4.708;2023-07-24T11:36:15;3.70;;;2.35;;
19830;SDS011;10076;52.008;4.708;2023-07-24T11:38:41;5.03;;;2.50;;
19830;SDS011;10076;52.008;4.708;2023-07-24T11:41:08;3.83;;;2.67;;
19830;SDS011;10076;52.008;4.708;2023-07-24T11:43:34;3.33;;;2.55;;
19830;SDS011;10076;52.008;4.708;2023-07-24T11:45:59;4.72;;;3.28;;
19830;SDS011;10076;52.008;4.708;2023-07-24T11:48:24;4.32;;;3.20;;
19830;SDS011;10076;52.008;4.708;2023-07-24T11:50:51;5.00;;;3.10;;
19830;SDS011;10076;52.008;4.708;2023-07-24T11:53:25;4.35;;;3.20;;
19830;SDS011;10076;52.008;4.708;2023-07-24T11:55:52;5.10;;;3.38;;
19830;SDS011;10076;52.008;4.708;2023-07-24T11:58:19;4.57;;;2.90;;
19830;SDS011;10076;52.008;4.708;2023-07-24T12:00:46;5.60;;;3.05;;
19830;SDS011;10076;52.008;4.708;2023-07-24T12:03:13;4.95;;;3.00;;
19830;SDS011;10076;52.008;4.708;2023-07-24T12:05:42;2.95;;;2.42;;
19830;SDS011;10076;52.008;4.708;2023-07-24T12:08:09;6.90;;;2.55;;
19830;SDS011;10076;52.008;4.708;2023-07-24T12:10:35;3.30;;;2.55;;
19830;SDS011;10076;52.008;4.708;2023-07-24T12:13:04;6.60;;;2.92;;
19830;SDS011;10076;52.008;4.708;2023-07-24T12:15:30;5.72;;;2.17;;
19830;SDS011;10076;52.008;4.708;2023-07-24T12:17:56;4.68;;;2.50;;
19830;SDS011;10076;52.008;4.708;2023-07-24T12:20:22;3.03;;;2.03;;
19830;SDS011;10076;52.008;4.708;2023-07-24T12:22:48;4.03;;;2.00;;
19830;SDS011;10076;52.008;4.708;2023-07-24T12:25:14;3.85;;;1.83;;
19830;SDS011;10076;52.008;4.708;2023-07-24T12:27:40;2.47;;;1.80;;
19830;SDS011;10076;52.008;4.708;2023-07-24T12:30:06;2.50;;;1.80;;
19830;SDS011;10076;52.008;4.708;2023-07-24T12:32:32;3.80;;;1.90;;
19830;SDS011;10076;52.008;4.708;2023-07-24T12:34:58;4.55;;;2.10;;
19830;SDS011;10076;52.008;4.708;2023-07-24T12:37:23;4.20;;;1.77;;
19830;SDS011;10076;52.008;4.708;2023-07-24T12:39:49;2.63;;;2.00;;
19830;SDS011;10076;52.008;4.708;2023-07-24T12:42:15;3.05;;;1.85;;
19830;SDS011;10076;52.008;4.708;2023-07-24T12:44:41;2.10;;;1.60;;
19830;SDS011;10076;52.008;4.708;2023-07-24T12:47:07;2.15;;;1.58;;
19830;SDS011;10076;52.008;4.708;2023-07-24T12:49:33;1.75;;;1.42;;
19830;SDS011;10076;52.008;4.708;2023-07-24T12:51:58;1.83;;;1.55;;
19830;SDS011;10076;52.008;4.708;2023-07-24T12:54:24;2.88;;;1.58;;
19830;SDS011;10076;52.008;4.708;2023-07-24T12:56:49;2.70;;;1.58;;
19830;SDS011;10076;52.008;4.708;2023-07-24T12:59:15;2.45;;;1.42;;
19830;SDS011;10076;52.008;4.708;2023-07-24T13:01:41;1.80;;;1.50;;
19830;SDS011;10076;52.008;4.708;2023-07-24T13:04:07;2.45;;;1.75;;
19830;SDS011;10076;52.008;4.708;2023-07-24T13:06:32;1.75;;;1.33;;
19830;SDS011;10076;52.008;4.708;2023-07-24T13:08:58;4.05;;;1.38;;
19830;SDS011;10076;52.008;4.708;2023-07-24T13:11:23;1.88;;;1.38;;
19830;SDS011;10076;52.008;4.708;2023-07-24T13:13:48;2.35;;;1.55;;
19830;SDS011;10076;52.008;4.708;2023-07-24T13:16:15;3.20;;;1.60;;
19830;SDS011;10076;52.008;4.708;2023-07-24T13:18:41;3.85;;;1.40;;
19830;SDS011;10076;52.008;4.708;2023-07-24T13:21:06;2.63;;;1.38;;
19830;SDS011;10076;52.008;4.708;2023-07-24T13:23:32;3.30;;;1.85;;
19830;SDS011;10076;52.008;4.708;2023-07-24T13:25:58;6.65;;;2.10;;
19830;SDS011;10076;52.008;4.708;2023-07-24T13:28:23;2.20;;;1.17;;
19830;SDS011;10076;52.008;4.708;2023-07-24T13:30:49;1.98;;;1.75;;
19830;SDS011;10076;52.008;4.708;2023-07-24T13:33:14;2.75;;;1.35;;
19830;SDS011;10076;52.008;4.708;2023-07-24T13:35:39;5.07;;;1.35;;
19830;SDS011;10076;52.008;4.708;2023-07-24T13:38:05;2.42;;;1.65;;
19830;SDS011;10076;52.008;4.708;2023-07-24T13:40:33;2.60;;;1.45;;
19830;SDS011;10076;52.008;4.708;2023-07-24T13:42:58;2.70;;;1.27;;
19830;SDS011;10076;52.008;4.708;2023-07-24T13:45:23;3.20;;;1.30;;
19830;SDS011;10076;52.008;4.708;2023-07-24T13:47:49;3.78;;;1.35;;
19830;SDS011;10076;52.008;4.708;2023-07-24T13:50:14;3.67;;;1.27;;
19830;SDS011;10076;52.008;4.708;2023-07-24T13:52:39;1.90;;;1.48;;
19830;SDS011;10076;52.008;4.708;2023-07-24T13:55:05;4.43;;;1.70;;
19830;SDS011;10076;52.008;4.708;2023-07-24T13:57:30;2.22;;;1.38;;
19830;SDS011;10076;52.008;4.708;2023-07-24T13:59:55;10.65;;;2.47;;
19830;SDS011;10076;52.008;4.708;2023-07-24T14:02:21;3.35;;;1.65;;
19830;SDS011;10076;52.008;4.708;2023-07-24T14:04:46;4.22;;;1.20;;
19830;SDS011;10076;52.008;4.708;2023-07-24T14:07:11;1.00;;;0.88;;
19830;SDS011;10076;52.008;4.708;2023-07-24T14:09:38;4.47;;;1.33;;
19830;SDS011;10076;52.008;4.708;2023-07-24T14:12:03;5.78;;;1.88;;
19830;SDS011;10076;52.008;4.708;2023-07-24T14:14:29;1.67;;;1.35;;
19830;SDS011;10076;52.008;4.708;2023-07-24T14:16:55;3.10;;;1.33;;
19830;SDS011;10076;52.008;4.708;2023-07-24T14:19:20;3.38;;;1.40;;
19830;SDS011;10076;52.008;4.708;2023-07-24T14:21:45;1.10;;;1.00;;
19830;SDS011;10076;52.008;4.708;2023-07-24T14:24:11;2.72;;;1.02;;
19830;SDS011;10076;52.008;4.708;2023-07-24T14:26:36;1.35;;;1.00;;
19830;SDS011;10076;52.008;4.708;2023-07-24T14:29:02;1.67;;;1.15;;
19830;SDS011;10076;52.008;4.708;2023-07-24T14:31:28;4.72;;;1.23;;
19830;SDS011;10076;52.008;4.708;2023-07-24T14:33:54;4.45;;;1.15;;
19830;SDS011;10076;52.008;4.708;2023-07-24T14:36:19;1.77;;;0.90;;
19830;SDS011;10076;52.008;4.708;2023-07-24T14:38:45;2.42;;;1.10;;
19830;SDS011;10076;52.008;4.708;2023-07-24T14:41:10;1.90;;;1.10;;
19830;SDS011;10076;52.008;4.708;2023-07-24T14:43:37;9.02;;;1.20;;
19830;SDS011;10076;52.008;4.708;2023-07-24T14:46:03;4.32;;;1.20;;
19830;SDS011;10076;52.008;4.708;2023-07-24T14:48:28;1.75;;;1.05;;
19830;SDS011;10076;52.008;4.708;2023-07-24T14:50:53;2.15;;;0.95;;